Time;durP1;ratioP1;P1;durP2;ratioP2;P2;SDS_P1;SDS_P2;PMS_P1;PMS_P2;Temp;Humidity;BMP_temperature;BMP_pressure;BME280_temperature;BME280_humidity;BME280_pressure;Samples;Min_cycle;Max_cycle;Signal;HPM_P1;HPM_P2
2023/06/09 00:02:23;;;;;;;18.70;6.80;;;;;;;16.24;98.25;101465.94;5065200;28;20126;-74
2023/06/09 00:04:49;;;;;;;25.38;7.05;;;;;;;16.34;97.83;101473.31;5054671;28;20037;-74
2023/06/09 00:07:18;;;;;;;16.90;7.15;;;;;;;16.26;98.45;101473.91;5066009;28;20036;-74
2023/06/09 00:09:44;;;;;;;17.70;7.55;;;;;;;16.36;97.69;101476.72;5058761;28;20138;-73
2023/06/09 00:12:10;;;;;;;16.25;8.18;;;;;;;16.13;100.00;101470.44;5058640;28;20029;-74
2023/06/09 00:14:36;;;;;;;15.68;6.70;;;;;;;16.01;100.00;101474.91;5059426;28;20117;-74
2023/06/09 00:17:02;;;;;;;18.23;6.90;;;;;;;16.06;100.00;101467.34;5055254;28;20584;-74
2023/06/09 00:19:29;;;;;;;16.42;7.18;;;;;;;16.11;100.00;101461.63;5053589;28;20443;-73
2023/06/09 00:21:54;;;;;;;19.15;6.45;;;;;;;16.09;99.05;101463.59;5061747;28;20041;-74
2023/06/09 00:24:22;;;;;;;19.00;7.18;;;;;;;16.00;98.08;101463.31;5064246;28;20033;-73
2023/06/09 00:26:49;;;;;;;16.17;6.85;;;;;;;16.23;97.68;101461.56;5059303;28;20126;-73
2023/06/09 00:29:16;;;;;;;18.02;7.30;;;;;;;16.04;98.91;101459.41;5066875;28;20040;-73
2023/06/09 00:31:42;;;;;;;18.48;7.35;;;;;;;16.02;99.63;101466.75;5052455;28;21497;-74
2023/06/09 00:34:11;;;;;;;20.73;6.47;;;;;;;15.97;99.53;101460.00;5058638;28;20760;-73
2023/06/09 00:36:40;;;;;;;20.45;6.53;;;;;;;15.99;100.00;101455.34;5068181;28;20079;-73
2023/06/09 00:39:12;;;;;;;13.43;5.80;;;;;;;16.07;97.55;101466.41;5070066;28;20029;-73
2023/06/09 00:41:41;;;;;;;14.93;6.72;;;;;;;16.27;97.19;101459.47;5064580;28;20048;-74
2023/06/09 00:44:12;;;;;;;24.07;7.27;;;;;;;16.30;95.29;101448.47;5045831;28;21042;-73
2023/06/09 00:46:40;;;;;;;15.75;6.75;;;;;;;16.25;95.58;101446.13;5063833;28;20025;-74
2023/06/09 00:49:10;;;;;;;16.20;6.63;;;;;;;16.19;96.34;101448.44;5065498;28;20028;-73
2023/06/09 00:51:39;;;;;;;13.65;6.25;;;;;;;16.26;95.84;101461.28;5059636;28;20208;-73
2023/06/09 00:54:07;;;;;;;14.90;6.97;;;;;;;15.95;96.07;101462.78;5054106;28;20837;-73
2023/06/09 00:56:35;;;;;;;15.85;6.18;;;;;;;16.06;97.24;101453.91;5044660;28;20166;-73
2023/06/09 00:59:01;;;;;;;14.77;6.97;;;;;;;15.98;98.69;101454.50;5065744;28;20510;-73
2023/06/09 01:01:32;;;;;;;17.70;6.82;;;;;;;15.94;97.09;101449.47;5061110;28;20375;-74
2023/06/09 01:03:59;;;;;;;20.02;6.78;;;;;;;15.94;96.76;101465.59;5045969;28;20415;-73
2023/06/09 01:06:56;;;;;;;17.35;6.38;;;;;;;16.02;95.40;101450.59;5058946;28;20033;-73
2023/06/09 01:09:43;;;;;;;17.95;6.70;;;;;;;15.85;97.49;101452.84;5020335;28;20144;-73
2023/06/09 01:12:15;;;;;;;15.98;6.18;;;;;;;15.93;97.06;101443.22;5052762;28;20532;-73
2023/06/09 01:14:48;;;;;;;14.27;6.05;;;;;;;15.86;97.34;101449.19;5058073;28;20098;-73
2023/06/09 01:17:18;;;;;;;14.95;6.78;;;;;;;15.75;99.09;101450.84;5051003;28;20033;-73
2023/06/09 01:19:46;;;;;;;15.93;6.90;;;;;;;15.63;98.64;101445.53;5032302;28;20029;-73
2023/06/09 01:22:27;;;;;;;17.42;7.22;;;;;;;15.61;100.00;101432.19;5056616;28;20041;-74
2023/06/09 01:25:25;;;;;;;18.80;6.85;;;;;;;15.80;99.00;101451.38;5063309;28;20032;-73
2023/06/09 01:27:57;;;;;;;20.10;6.15;;;;;;;15.62;100.00;101447.34;5057906;28;20118;-74
2023/06/09 01:30:32;;;;;;;20.05;7.13;;;;;;;15.56;100.00;101450.47;5032068;28;20186;-73
2023/06/09 01:32:59;;;;;;;22.77;7.47;;;;;;;15.37;100.00;101445.63;5055799;28;20552;-73
2023/06/09 01:35:26;;;;;;;17.60;6.93;;;;;;;15.29;100.00;101446.19;5064997;28;20801;-74
2023/06/09 01:37:56;;;;;;;19.52;6.97;;;;;;;15.31;100.00;101445.22;5046146;28;20053;-73
2023/06/09 01:40:22;;;;;;;19.55;7.30;;;;;;;15.11;100.00;101444.88;5057081;28;20127;-73
2023/06/09 01:42:49;;;;;;;15.30;6.13;;;;;;;15.25;100.00;101439.31;5050779;28;20106;-73
2023/06/09 01:45:15;;;;;;;19.83;7.15;;;;;;;14.94;100.00;101438.00;5066730;28;20033;-73
2023/06/09 01:47:41;;;;;;;21.40;8.65;;;;;;;14.96;100.00;101441.47;5049222;28;20060;-74
2023/06/09 01:50:19;;;;;;;18.15;7.68;;;;;;;14.98;100.00;101438.66;5064667;28;20041;-73
2023/06/09 01:53:00;;;;;;;22.05;7.30;;;;;;;15.01;100.00;101443.81;5049119;28;20171;-73
2023/06/09 01:55:38;;;;;;;20.63;8.43;;;;;;;14.86;100.00;101440.41;5045740;28;20118;-73
2023/06/09 01:58:17;;;;;;;19.40;7.07;;;;;;;14.81;100.00;101441.69;5025269;28;20033;-73
2023/06/09 02:00:45;;;;;;;19.52;7.38;;;;;;;14.81;100.00;101439.00;5059046;28;20068;-73
2023/06/09 02:03:14;;;;;;;24.98;7.65;;;;;;;14.77;100.00;101441.06;5049063;28;20037;-74
2023/06/09 02:05:42;;;;;;;23.77;6.90;;;;;;;14.64;100.00;101432.16;5062219;28;20037;-73
2023/06/09 02:08:11;;;;;;;19.30;8.20;;;;;;;14.69;100.00;101432.69;5063913;28;20112;-74
2023/06/09 02:10:38;;;;;;;24.10;8.70;;;;;;;14.66;100.00;101430.19;5042378;28;20037;-73
2023/06/09 02:13:31;;;;;;;16.17;6.85;;;;;;;14.43;100.00;101431.81;5045149;28;20045;-74
2023/06/09 02:15:57;;;;;;;23.33;8.17;;;;;;;14.49;100.00;101420.69;5036963;28;20072;-74
2023/06/09 02:18:22;;;;;;;25.05;8.15;;;;;;;14.29;100.00;101423.88;5034503;28;20075;-73
2023/06/09 02:20:49;;;;;;;23.70;8.27;;;;;;;14.40;100.00;101414.09;5069529;28;20021;-73
2023/06/09 02:23:17;;;;;;;20.00;7.65;;;;;;;14.43;100.00;101421.94;5062204;28;20045;-73
2023/06/09 02:25:43;;;;;;;24.05;8.45;;;;;;;14.39;100.00;101419.56;5061014;28;20028;-74
2023/06/09 02:28:11;;;;;;;18.65;7.80;;;;;;;14.13;100.00;101427.63;5058014;28;20040;-74
2023/06/09 02:30:36;;;;;;;18.63;7.57;;;;;;;14.15;100.00;101425.66;5071081;28;20114;-74
2023/06/09 02:33:02;;;;;;;15.63;7.63;;;;;;;14.32;100.00;101424.53;5055175;28;20114;-73
2023/06/09 02:35:29;;;;;;;18.90;8.15;;;;;;;14.15;100.00;101423.00;5047340;28;20116;-74
2023/06/09 02:37:57;;;;;;;18.48;7.65;;;;;;;14.17;100.00;101426.44;5034732;28;20053;-73
2023/06/09 02:40:26;;;;;;;27.23;8.52;;;;;;;14.03;100.00;101426.53;5060520;28;20139;-73
2023/06/09 02:42:51;;;;;;;20.15;7.80;;;;;;;14.20;100.00;101428.91;5054510;28;20047;-73
2023/06/09 02:45:17;;;;;;;20.50;7.88;;;;;;;14.10;100.00;101426.97;5062548;28;20083;-74
2023/06/09 02:47:42;;;;;;;31.42;8.48;;;;;;;14.07;100.00;101424.50;5048237;28;20158;-74
2023/06/09 02:50:11;;;;;;;17.23;7.68;;;;;;;13.90;100.00;101421.13;5066184;28;20086;-74
2023/06/09 02:52:39;;;;;;;26.23;7.95;;;;;;;13.97;100.00;101426.97;5058097;28;20148;-73
2023/06/09 02:55:11;;;;;;;19.95;8.30;;;;;;;13.95;100.00;101426.19;5070666;28;20024;-74
2023/06/09 02:57:41;;;;;;;21.92;7.88;;;;;;;13.94;100.00;101432.50;5053862;28;20040;-74
2023/06/09 03:00:15;;;;;;;22.42;7.72;;;;;;;13.89;100.00;101426.59;5052163;28;20036;-73
2023/06/09 03:02:42;;;;;;;21.13;8.43;;;;;;;14.04;100.00;101425.56;5046393;28;20998;-73
2023/06/09 03:05:11;;;;;;;27.00;8.93;;;;;;;13.98;100.00;101425.97;5048065;28;20115;-73
2023/06/09 03:07:40;;;;;;;26.80;7.80;;;;;;;13.89;100.00;101422.09;5051414;28;20044;-74
2023/06/09 03:10:07;;;;;;;28.70;9.15;;;;;;;13.93;100.00;101433.47;5055266;28;20037;-72
2023/06/09 03:12:41;;;;;;;26.27;9.20;;;;;;;13.88;100.00;101431.13;5058401;28;20105;-73
2023/06/09 03:15:08;;;;;;;16.83;7.88;;;;;;;13.84;100.00;101437.63;5064736;28;20053;-73
2023/06/09 03:17:34;;;;;;;26.88;7.63;;;;;;;13.81;100.00;101437.88;5049378;28;20037;-74
2023/06/09 03:20:00;;;;;;;21.92;7.97;;;;;;;13.65;100.00;101432.66;5064798;28;20039;-73
2023/06/09 03:22:29;;;;;;;20.67;7.30;;;;;;;13.83;100.00;101438.59;5049911;28;20044;-73
2023/06/09 03:24:56;;;;;;;25.73;8.13;;;;;;;13.78;100.00;101435.38;5042379;28;20036;-73
2023/06/09 03:27:22;;;;;;;18.45;8.23;;;;;;;13.86;100.00;101434.88;5035335;28;20029;-74
2023/06/09 03:29:48;;;;;;;20.42;7.97;;;;;;;13.74;100.00;101442.75;5041367;28;20031;-73
2023/06/09 03:32:13;;;;;;;22.60;8.27;;;;;;;13.72;100.00;101441.16;5049212;28;20040;-73
2023/06/09 03:34:40;;;;;;;23.40;8.20;;;;;;;13.70;100.00;101443.06;5069410;28;20790;-74
2023/06/09 03:37:12;;;;;;;18.58;7.82;;;;;;;13.77;100.00;101441.72;5053046;28;20124;-73
2023/06/09 03:39:39;;;;;;;21.48;9.00;;;;;;;13.84;100.00;101445.69;5051730;28;20025;-73
2023/06/09 03:42:06;;;;;;;22.85;8.32;;;;;;;14.08;100.00;101435.13;5043743;28;20114;-73
2023/06/09 03:44:35;;;;;;;21.23;8.27;;;;;;;14.21;100.00;101440.50;5026177;28;20098;-73
2023/06/09 03:47:01;;;;;;;23.95;8.23;;;;;;;14.32;100.00;101432.56;5056089;28;21026;-74
2023/06/09 03:49:26;;;;;;;24.45;8.15;;;;;;;14.41;100.00;101428.41;5057791;28;20032;-74
2023/06/09 03:51:52;;;;;;;20.05;7.97;;;;;;;14.58;100.00;101443.34;5035059;28;20044;-74
2023/06/09 03:54:18;;;;;;;22.50;8.18;;;;;;;15.09;100.00;101437.88;5061484;28;20063;-74
2023/06/09 03:56:44;;;;;;;19.05;7.63;;;;;;;15.25;100.00;101443.84;5048776;28;20028;-74
2023/06/09 03:59:10;;;;;;;21.95;8.27;;;;;;;15.50;100.00;101445.56;5054590;28;20028;-74
2023/06/09 04:01:36;;;;;;;21.50;7.95;;;;;;;15.46;100.00;101438.69;5070065;28;20095;-73
2023/06/09 04:04:01;;;;;;;25.60;8.02;;;;;;;15.46;100.00;101438.69;5048360;28;20685;-73
2023/06/09 04:06:28;;;;;;;23.05;8.40;;;;;;;15.56;100.00;101437.03;5059226;28;20366;-73
2023/06/09 04:08:55;;;;;;;21.17;8.45;;;;;;;16.35;99.42;101430.13;5033057;28;20215;-75
2023/06/09 04:11:21;;;;;;;24.33;7.85;;;;;;;16.14;98.00;101440.72;5050509;28;20179;-74
2023/06/09 04:13:47;;;;;;;23.60;7.45;;;;;;;16.33;97.61;101442.84;5061573;28;20036;-74
2023/06/09 04:16:16;;;;;;;15.20;7.85;;;;;;;16.74;94.02;101434.22;5046352;28;20108;-73
2023/06/09 04:18:41;;;;;;;18.60;7.82;;;;;;;17.04;93.14;101435.44;5060826;28;20040;-73
2023/06/09 04:21:11;;;;;;;17.98;7.72;;;;;;;17.21;87.53;101437.59;5052594;28;20460;-74
2023/06/09 04:23:42;;;;;;;16.42;8.05;;;;;;;16.96;91.87;101436.03;5060683;28;20037;-74
2023/06/09 04:26:13;;;;;;;25.83;7.90;;;;;;;17.52;88.53;101440.47;5042530;28;20028;-72
2023/06/09 04:28:41;;;;;;;24.80;7.53;;;;;;;17.06;89.71;101441.53;5076324;28;20029;-74
2023/06/09 04:31:12;;;;;;;21.60;8.15;;;;;;;17.20;90.65;101438.59;5030626;28;20044;-75
2023/06/09 04:33:40;;;;;;;21.33;8.20;;;;;;;17.17;89.19;101437.97;5062590;28;20630;-74
2023/06/09 04:36:07;;;;;;;20.77;8.60;;;;;;;17.66;86.97;101436.63;5050947;28;20032;-74
2023/06/09 04:38:36;;;;;;;27.73;8.38;;;;;;;17.70;86.30;101438.94;5039733;28;20139;-74
2023/06/09 04:41:05;;;;;;;18.67;7.60;;;;;;;18.34;83.17;101440.72;5032738;28;20032;-74
2023/06/09 04:43:36;;;;;;;23.92;8.52;;;;;;;18.95;79.43;101434.50;5041952;28;20048;-74
2023/06/09 04:46:06;;;;;;;16.20;8.10;;;;;;;18.73;80.64;101439.13;5041691;28;20094;-74
2023/06/09 04:48:35;;;;;;;20.58;8.35;;;;;;;19.09;78.21;101442.25;5046339;28;20521;-74
2023/06/09 04:51:02;;;;;;;25.15;8.23;;;;;;;19.11;79.58;101432.97;5072633;28;20033;-74
2023/06/09 04:53:34;;;;;;;21.88;8.10;;;;;;;18.63;79.47;101430.94;5070350;28;20044;-74
2023/06/09 04:56:00;;;;;;;24.40;8.63;;;;;;;19.29;76.60;101430.47;5055562;28;20568;-75
2023/06/09 04:58:31;;;;;;;19.98;8.40;;;;;;;19.84;76.57;101435.41;5057819;28;20088;-74
2023/06/09 05:00:58;;;;;;;20.27;9.10;;;;;;;19.62;75.43;101441.94;5059306;28;20070;-74
2023/06/09 05:03:25;;;;;;;19.48;7.93;;;;;;;19.46;75.60;101437.03;5062332;28;20117;-74
2023/06/09 05:05:51;;;;;;;22.05;8.32;;;;;;;20.38;72.02;101447.41;5066277;28;20024;-75
2023/06/09 05:08:17;;;;;;;22.85;9.18;;;;;;;19.34;74.94;101447.13;5051711;28;20136;-74
2023/06/09 05:10:45;;;;;;;25.85;9.10;;;;;;;19.70;75.35;101441.22;5060512;28;20127;-73
2023/06/09 05:13:11;;;;;;;24.00;8.48;;;;;;;19.73;75.24;101441.81;5059343;28;20108;-74
2023/06/09 05:15:36;;;;;;;21.70;8.38;;;;;;;19.99;73.58;101431.25;5035986;28;20040;-74
2023/06/09 05:18:04;;;;;;;25.88;9.43;;;;;;;20.32;71.34;101445.31;5067377;28;20052;-74
2023/06/09 05:20:33;;;;;;;19.85;8.38;;;;;;;19.55;74.37;101446.16;5055735;28;20900;-73
2023/06/09 05:22:58;;;;;;;22.73;9.70;;;;;;;20.38;73.59;101440.19;5058083;28;20041;-74
2023/06/09 05:25:25;;;;;;;19.75;8.25;;;;;;;19.53;74.13;101445.44;5072719;28;20579;-74
2023/06/09 05:27:51;;;;;;;25.98;9.57;;;;;;;19.62;75.48;101447.34;5064346;28;20055;-73
2023/06/09 05:30:18;;;;;;;19.58;8.73;;;;;;;20.36;72.60;101447.59;5048477;28;20568;-73
2023/06/09 05:32:43;;;;;;;19.80;9.77;;;;;;;19.92;73.98;101446.34;5042995;28;20156;-73
2023/06/09 05:35:10;;;;;;;26.25;9.05;;;;;;;19.73;75.52;101454.47;5058191;28;20036;-72
2023/06/09 05:38:01;;;;;;;21.15;8.90;;;;;;;20.24;73.16;101442.50;5054297;28;20049;-74
2023/06/09 05:40:28;;;;;;;24.38;10.20;;;;;;;20.52;72.11;101444.28;5048891;28;20036;-74
2023/06/09 05:42:53;;;;;;;20.63;9.23;;;;;;;19.96;73.52;101446.94;5068497;28;20041;-74
2023/06/09 05:45:19;;;;;;;25.88;9.70;;;;;;;19.73;74.93;101447.22;5068705;28;20074;-74
2023/06/09 05:47:45;;;;;;;20.00;8.90;;;;;;;19.75;77.18;101447.94;5055267;28;20814;-74
2023/06/09 05:50:11;;;;;;;21.33;9.88;;;;;;;20.23;75.20;101451.59;5067907;28;20051;-74
2023/06/09 05:52:37;;;;;;;23.83;9.30;;;;;;;20.44;74.10;101449.56;5048945;28;20040;-73
2023/06/09 05:55:05;;;;;;;23.27;9.52;;;;;;;20.72;72.20;101455.06;5049272;28;20071;-74
2023/06/09 05:57:30;;;;;;;17.02;9.30;;;;;;;20.43;73.14;101453.25;5044372;28;20650;-74
2023/06/09 05:59:57;;;;;;;18.95;8.85;;;;;;;20.41;72.85;101461.53;5063390;28;20037;-72
2023/06/09 06:02:23;;;;;;;27.77;10.32;;;;;;;20.53;71.74;101451.41;5067275;28;20048;-73
2023/06/09 06:04:48;;;;;;;24.20;9.77;;;;;;;20.38;75.13;101450.13;5065829;28;20056;-74
2023/06/09 06:07:15;;;;;;;21.00;9.93;;;;;;;20.85;73.47;101451.03;5060654;28;20382;-74
2023/06/09 06:09:40;;;;;;;22.50;9.73;;;;;;;20.90;72.83;101447.88;5047249;28;20128;-74
2023/06/09 06:12:07;;;;;;;18.65;9.65;;;;;;;20.36;75.02;101452.16;5037567;28;20742;-73
2023/06/09 06:14:34;;;;;;;29.27;10.00;;;;;;;20.58;74.70;101445.56;5045041;28;20155;-73
2023/06/09 06:16:59;;;;;;;19.42;9.48;;;;;;;21.00;72.18;101434.28;5058897;28;20156;-74
2023/06/09 06:19:25;;;;;;;20.63;10.38;;;;;;;20.92;73.07;101441.28;5059690;28;20061;-73
2023/06/09 06:21:51;;;;;;;19.70;10.30;;;;;;;20.82;75.10;101440.47;5041682;28;20311;-75
2023/06/09 06:24:17;;;;;;;21.38;10.27;;;;;;;21.08;72.76;101446.06;5050304;28;20072;-74
2023/06/09 06:26:42;;;;;;;25.48;9.80;;;;;;;21.15;71.76;101444.47;5043733;28;20029;-74
2023/06/09 06:29:11;;;;;;;20.80;9.77;;;;;;;20.76;72.48;101445.66;5065881;28;20518;-74
2023/06/09 06:31:43;;;;;;;22.05;10.82;;;;;;;21.14;73.23;101431.91;5063508;28;20139;-73
2023/06/09 06:34:12;;;;;;;18.90;10.77;;;;;;;21.34;72.21;101437.25;5044905;28;20055;-73
2023/06/09 06:36:41;;;;;;;22.77;10.35;;;;;;;21.25;74.02;101441.69;5066631;28;20161;-73
2023/06/09 06:39:12;;;;;;;25.42;10.40;;;;;;;21.31;71.36;101434.84;5036648;28;20083;-72
2023/06/09 06:41:41;;;;;;;22.10;9.87;;;;;;;21.78;71.93;101440.91;5042609;28;20037;-73
2023/06/09 06:44:11;;;;;;;21.23;10.38;;;;;;;21.33;73.89;101436.38;5042774;28;21028;-73
2023/06/09 06:46:38;;;;;;;24.92;10.95;;;;;;;21.26;72.89;101440.69;5044313;28;20923;-74
2023/06/09 06:49:05;;;;;;;22.30;10.55;;;;;;;21.11;73.37;101436.78;5047805;28;20033;-74
2023/06/09 06:51:41;;;;;;;21.00;10.80;;;;;;;21.33;74.58;101439.09;5039673;28;20029;-74
2023/06/09 06:54:08;;;;;;;20.50;9.95;;;;;;;21.77;72.94;101441.06;5042195;28;20092;-74
2023/06/09 06:56:36;;;;;;;21.83;10.60;;;;;;;21.86;72.84;101446.41;5049020;28;20044;-74
2023/06/09 06:59:01;;;;;;;26.08;10.25;;;;;;;21.79;71.96;101439.91;5047548;28;20029;-74
2023/06/09 07:01:30;;;;;;;17.55;10.15;;;;;;;22.11;72.12;101439.38;5045331;28;20037;-73
2023/06/09 07:03:56;;;;;;;22.23;9.95;;;;;;;22.21;73.08;101437.41;5045901;28;20937;-74
2023/06/09 07:06:21;;;;;;;20.77;9.70;;;;;;;22.14;71.72;101436.34;5047697;28;20033;-73
2023/06/09 07:08:48;;;;;;;20.58;10.07;;;;;;;21.94;72.05;101440.22;5035118;28;20116;-73
2023/06/09 07:11:14;;;;;;;21.00;11.13;;;;;;;22.31;72.66;101431.88;5044375;28;20041;-74
2023/06/09 07:13:43;;;;;;;20.15;10.25;;;;;;;22.48;70.87;101436.38;5044160;28;20115;-74
2023/06/09 07:16:10;;;;;;;20.15;11.20;;;;;;;22.44;69.69;101435.03;5043199;28;20953;-74
2023/06/09 07:18:36;;;;;;;21.48;11.13;;;;;;;22.56;70.56;101432.03;5044822;28;20148;-72
2023/06/09 07:21:02;;;;;;;22.27;11.23;;;;;;;22.16;71.59;101428.03;5044397;28;20072;-73
2023/06/09 07:23:28;;;;;;;26.02;12.10;;;;;;;22.53;72.14;101435.91;5045116;28;21153;-75
2023/06/09 07:25:54;;;;;;;19.88;10.68;;;;;;;22.84;73.09;101424.50;5042558;28;20038;-73
2023/06/09 07:28:20;;;;;;;18.63;10.43;;;;;;;23.08;72.35;101429.25;5039147;28;20055;-73
2023/06/09 07:30:45;;;;;;;26.98;11.10;;;;;;;23.18;71.27;101433.53;5041900;28;20084;-74
2023/06/09 07:33:11;;;;;;;20.73;11.40;;;;;;;22.69;69.76;101425.16;5043888;28;20037;-73
2023/06/09 07:35:36;;;;;;;17.40;10.25;;;;;;;23.30;67.86;101416.91;5041740;28;20043;-73
2023/06/09 07:38:05;;;;;;;22.35;11.15;;;;;;;23.29;68.98;101426.06;5025655;28;20048;-74
2023/06/09 07:40:30;;;;;;;22.50;11.65;;;;;;;23.10;69.45;101432.66;5012486;28;20045;-73
2023/06/09 07:42:56;;;;;;;20.83;10.88;;;;;;;23.27;69.84;101424.38;5043980;28;20052;-73
2023/06/09 07:45:25;;;;;;;19.55;11.13;;;;;;;23.54;69.44;101427.81;5037447;28;20052;-73
2023/06/09 07:47:50;;;;;;;18.58;11.00;;;;;;;23.50;68.41;101421.88;5044065;28;20037;-73
2023/06/09 07:50:17;;;;;;;17.98;10.82;;;;;;;23.27;69.67;101418.94;5046827;28;20149;-74
2023/06/09 07:52:43;;;;;;;21.80;11.80;;;;;;;23.56;67.61;101423.09;5039745;28;20036;-73
2023/06/09 07:55:10;;;;;;;19.55;11.45;;;;;;;23.46;67.09;101422.38;5044298;28;20029;-72
2023/06/09 07:57:37;;;;;;;22.40;11.95;;;;;;;23.81;68.23;101429.44;5040542;28;20044;-72
2023/06/09 08:00:10;;;;;;;25.08;12.07;;;;;;;23.66;68.14;101422.97;5034633;28;20872;-74
2023/06/09 08:02:43;;;;;;;21.35;11.77;;;;;;;24.09;68.78;101423.63;5030792;28;20080;-73
2023/06/09 08:05:13;;;;;;;21.98;11.32;;;;;;;24.00;66.64;101423.66;5044347;28;20030;-73
2023/06/09 08:07:39;;;;;;;26.20;12.85;;;;;;;23.85;65.71;101427.25;5040065;28;20103;-73
2023/06/09 08:10:08;;;;;;;19.83;11.63;;;;;;;24.48;65.55;101430.09;5039813;28;20034;-73
2023/06/09 08:12:37;;;;;;;22.55;12.23;;;;;;;24.11;66.79;101437.97;5044872;28;20037;-74
2023/06/09 08:15:06;;;;;;;19.35;11.95;;;;;;;24.50;65.02;101427.22;5037130;28;20075;-74
2023/06/09 08:17:32;;;;;;;21.00;11.25;;;;;;;24.38;64.90;101428.59;5041343;28;20033;-74
2023/06/09 08:19:57;;;;;;;22.60;11.27;;;;;;;24.72;66.38;101426.44;5037440;28;20030;-73
2023/06/09 08:22:23;;;;;;;21.88;12.40;;;;;;;24.89;63.15;101427.22;5033521;28;20053;-74
2023/06/09 08:24:48;;;;;;;20.75;12.00;;;;;;;24.65;64.56;101436.38;5041799;28;20047;-74
2023/06/09 08:27:15;;;;;;;18.92;11.40;;;;;;;24.63;66.03;101424.78;5043754;28;20831;-74
2023/06/09 08:29:41;;;;;;;15.95;10.88;;;;;;;24.42;65.72;101427.22;5041253;28;20075;-74
2023/06/09 08:32:10;;;;;;;21.25;11.18;;;;;;;24.84;64.28;101423.34;5042703;28;20037;-75
2023/06/09 08:34:36;;;;;;;19.30;10.85;;;;;;;25.15;63.84;101415.19;5040930;28;20137;-74
2023/06/09 08:37:03;;;;;;;18.80;12.07;;;;;;;24.84;60.38;101410.53;5042864;28;20037;-73
2023/06/09 08:39:29;;;;;;;21.40;12.23;;;;;;;25.30;62.46;101410.69;5039024;28;20581;-73
2023/06/09 08:41:59;;;;;;;20.85;11.93;;;;;;;25.08;62.98;101409.63;5037451;28;20045;-74
2023/06/09 08:44:26;;;;;;;22.45;11.18;;;;;;;25.17;63.28;101410.44;5036826;28;20076;-77
2023/06/09 08:46:53;;;;;;;22.02;10.93;;;;;;;25.07;64.53;101409.81;5038923;28;20599;-76
2023/06/09 08:49:21;;;;;;;18.85;11.88;;;;;;;25.25;61.76;101408.53;5048115;28;20064;-76
2023/06/09 08:51:46;;;;;;;26.58;12.18;;;;;;;25.36;60.95;101407.25;5039798;28;20109;-77
2023/06/09 08:54:15;;;;;;;20.42;11.68;;;;;;;25.21;63.35;101409.06;5043219;28;20040;-77
2023/06/09 08:56:41;;;;;;;23.23;10.80;;;;;;;25.23;60.77;101404.25;5043949;28;20037;-76
2023/06/09 08:59:13;;;;;;;20.48;10.90;;;;;;;25.62;61.74;101414.25;5043778;28;20052;-77
2023/06/09 09:01:41;;;;;;;23.85;12.25;;;;;;;25.34;61.17;101398.38;5040393;28;20060;-78
2023/06/09 09:04:11;;;;;;;26.20;13.00;;;;;;;25.63;61.07;101402.28;5036743;28;20033;-77
2023/06/09 09:06:37;;;;;;;19.40;10.50;;;;;;;25.89;59.18;101400.03;5040857;28;20033;-78
2023/06/09 09:09:03;;;;;;;25.55;13.65;;;;;;;25.46;60.52;101407.88;5042680;28;20045;-74
2023/06/09 09:11:28;;;;;;;22.63;12.02;;;;;;;25.60;61.59;101402.63;5040928;28;20033;-76
2023/06/09 09:13:54;;;;;;;26.63;12.52;;;;;;;25.72;61.41;101401.19;5050037;28;20029;-77
2023/06/09 09:16:20;;;;;;;20.80;11.38;;;;;;;25.71;61.73;101404.97;5034477;28;20103;-76
2023/06/09 09:18:47;;;;;;;21.27;11.85;;;;;;;25.82;61.25;101407.28;5038310;28;20041;-74
2023/06/09 09:21:21;;;;;;;20.02;10.80;;;;;;;26.25;58.58;101397.47;5041332;28;20037;-74
2023/06/09 09:23:55;;;;;;;16.77;11.50;;;;;;;26.44;57.95;101393.38;5038469;28;20036;-75
2023/06/09 09:26:27;;;;;;;15.60;10.30;;;;;;;26.37;58.73;101395.16;5033928;28;20950;-76
2023/06/09 09:28:55;;;;;;;26.52;13.68;;;;;;;25.82;58.55;101399.09;5041592;28;20115;-75
2023/06/09 09:31:30;;;;;;;23.33;11.57;;;;;;;26.05;59.50;101399.03;5033039;28;20069;-74
2023/06/09 09:33:55;;;;;;;23.25;11.85;;;;;;;26.33;59.01;101389.19;5039316;28;20044;-76
2023/06/09 09:36:21;;;;;;;17.77;10.63;;;;;;;26.03;59.52;101391.03;5042696;28;20045;-76
2023/06/09 09:38:47;;;;;;;20.17;9.77;;;;;;;26.44;59.17;101384.34;5033227;28;20281;-76
2023/06/09 09:41:16;;;;;;;21.77;11.45;;;;;;;26.43;58.19;101385.38;5029012;28;20063;-74
2023/06/09 09:43:46;;;;;;;24.25;11.05;;;;;;;26.23;63.12;101385.88;5055125;28;20107;-75
2023/06/09 09:46:11;;;;;;;14.57;10.85;;;;;;;26.03;58.14;101388.31;5048206;28;20893;-75
2023/06/09 09:48:38;;;;;;;16.48;9.98;;;;;;;26.28;57.82;101388.06;5042555;28;20048;-76
2023/06/09 09:51:05;;;;;;;18.35;10.35;;;;;;;26.56;56.88;101378.22;5050119;28;20917;-74
2023/06/09 09:53:31;;;;;;;15.80;11.13;;;;;;;27.04;55.93;101375.03;5047685;28;20032;-74
2023/06/09 09:56:00;;;;;;;21.02;10.27;;;;;;;26.37;57.38;101375.16;5045669;28;20080;-76
2023/06/09 09:58:34;;;;;;;15.98;10.32;;;;;;;26.75;57.24;101370.44;5031831;28;20033;-74
2023/06/09 10:01:04;;;;;;;15.13;9.45;;;;;;;26.65;57.53;101372.63;5045994;28;20034;-74
2023/06/09 10:03:31;;;;;;;16.00;11.13;;;;;;;26.89;56.60;101376.94;5051865;28;20072;-73
2023/06/09 10:06:01;;;;;;;17.10;9.75;;;;;;;27.00;57.43;101379.19;5036936;28;20069;-75
2023/06/09 10:08:28;;;;;;;21.23;9.63;;;;;;;26.92;55.87;101362.88;5041204;28;20052;-74
2023/06/09 10:11:02;;;;;;;17.10;9.05;;;;;;;27.41;54.65;101368.53;5049740;28;20040;-74
2023/06/09 10:13:29;;;;;;;14.35;8.98;;;;;;;27.58;53.48;101363.63;5059682;28;20266;-75
2023/06/09 10:15:57;;;;;;;16.23;9.75;;;;;;;27.35;52.02;101363.81;5045424;28;20086;-76
2023/06/09 10:18:23;;;;;;;14.85;8.48;;;;;;;27.39;52.36;101358.81;5051907;28;20118;-76
2023/06/09 10:20:51;;;;;;;10.98;7.60;;;;;;;27.84;52.02;101363.91;5050796;28;20032;-77
2023/06/09 10:23:17;;;;;;;14.30;8.10;;;;;;;27.93;51.76;101359.13;5056088;28;20135;-76
2023/06/09 10:25:47;;;;;;;10.93;7.82;;;;;;;27.99;51.58;101365.72;5049500;28;20048;-75
2023/06/09 10:28:15;;;;;;;13.73;8.35;;;;;;;27.86;50.16;101361.81;5050838;28;20033;-75
2023/06/09 10:30:41;;;;;;;13.52;7.72;;;;;;;27.97;49.56;101360.44;5046118;28;20028;-75
2023/06/09 10:33:22;;;;;;;14.60;7.95;;;;;;;27.61;51.14;101355.88;5071874;28;20079;-75
2023/06/09 10:35:49;;;;;;;11.53;7.70;;;;;;;27.63;51.83;101359.25;5047373;28;20029;-75
2023/06/09 10:38:22;;;;;;;13.93;8.30;;;;;;;28.04;49.97;101350.34;5044003;28;20056;-75
2023/06/09 10:40:57;;;;;;;10.88;7.85;;;;;;;28.29;49.16;101350.72;5048731;28;20033;-75
2023/06/09 10:43:36;;;;;;;11.15;7.10;;;;;;;28.50;50.67;101344.34;5048274;28;20056;-74
2023/06/09 10:46:03;;;;;;;9.75;7.20;;;;;;;28.45;48.85;101343.25;5019673;28;20047;-74
2023/06/09 10:48:48;;;;;;;11.20;7.97;;;;;;;28.14;48.94;101336.28;5045562;28;20043;-74
2023/06/09 10:51:26;;;;;;;11.82;7.22;;;;;;;28.22;52.20;101354.50;5047909;28;20040;-74
2023/06/09 10:54:12;;;;;;;11.13;7.00;;;;;;;28.40;47.94;101346.59;5037565;28;20561;-74
2023/06/09 10:56:41;;;;;;;11.00;7.18;;;;;;;28.23;47.01;101342.47;5045478;28;20037;-75
2023/06/09 10:59:25;;;;;;;12.52;6.57;;;;;;;28.50;46.88;101338.00;5048482;28;20045;-74
2023/06/09 11:02:03;;;;;;;13.57;7.10;;;;;;;28.69;47.63;101328.19;5038346;28;20037;-74
2023/06/09 11:04:43;;;;;;;14.15;6.25;;;;;;;28.98;47.81;101336.13;5040583;28;20052;-74
2023/06/09 11:07:23;;;;;;;11.20;6.40;;;;;;;28.71;46.87;101328.81;5039818;28;20033;-75
2023/06/09 11:09:49;;;;;;;9.43;6.30;;;;;;;28.53;47.31;101334.88;5037890;28;20033;-74
2023/06/09 11:12:49;;;;;;;11.43;6.40;;;;;;;28.66;46.00;101323.94;5031615;28;20044;-73
2023/06/09 11:15:16;;;;;;;10.88;6.68;;;;;;;28.67;45.42;101319.28;5043398;28;20047;-75
2023/06/09 11:17:44;;;;;;;8.45;6.20;;;;;;;28.44;44.50;101322.38;5041851;28;20033;-74
2023/06/09 11:20:17;;;;;;;9.70;6.07;;;;;;;28.64;44.91;101317.81;5046970;28;20063;-74